Pearson, Washington
Current Conditions -  °F | °C
As of 4:55 PM on Friday 24 Oct 2014 (Local Time) from KPWT Reporting Station
Clear Clear  
Wind Chill: 54°   Ceiling: Unl
Heat Index: 54°   Visibility: 10mi
Dew Point: 46°   Wind: 13mph
Humidity: 77%   Direction: 30°NNE
Pressure: 29.91"   Gusts: NA
Location:  47.7571°N, 122.623°W
Report Text: KPWT 242355Z AUTO 03011KT 10SM CLR 12/08 A2991 RMK AO1 10120 20110 401200070 57030
Loading
Personal Weather Stations






























Interactive Weather Map
Tropical Storm Tracking
New forecast layout! Learn more

10-Day Weather Forecast

Advertisements
Track Severe Weather on mobile